Gadsden, Alabama
Current Conditions -  °F | °C
As of 11:55 AM on Sunday 21 Dec 2014 (Local Time) from KGAD Reporting Station
Few Clouds Few Clouds  
Wind Chill: 12°   Ceiling: Unl
Heat Index: 12°   Visibility: 9mi
Dew Point:   Wind: 9mph
Humidity: 67%   Direction: 100°E
Pressure: 30.14"   Gusts: NA
Location:  34.01°N, 86.01°W
Report Text: KGAD 211755Z 10008KT 9SM FEW033 12/06 A3014 RMK AO1 10120 20010 57024
Loading
Personal Weather Stations






























Interactive Weather Map New forecast layout! Learn more

10-Day Weather Forecast

Advertisements
Track Severe Weather on mobile